Juist Airport

METAR EHGG TAF EHGG
7 °C
°C
-
°C
20m
Âge
02:44:45
LT
01:44
UTC
0 ft

1.000

2.000

3.000

4.000

5.000

SCT 3.200
BKN 3.700
VFR
<?= Yii::t('app', 'Wind direction') ?> <?= Yii::t('app', 'of'); ?>
310°
08:12
Lever du soleil
87%
Humidité
Cisaillement du vent
Fermé/neige
Portée visuelle RWY
Condition RWY
Visibilité vert.
Visibilité min.
CAVOK
Tendance
Correction
Rapport spécial
1031 hPa
QNH
METAR EHGG 040125Z AUTO 31007KT 270V350 9000 SCT032 BKN037 07/05 Q1031
Fragmenté
7 kt
7 kt
02:00
IFR
5 kt
03:00
IFR
5 kt
04:00
IFR
5 kt
05:00
IFR
5 kt
06:00
IFR
5 kt
07:00
IFR
5 kt
08:00
IFR
5 kt
9 km
Vue
3.700 ft
Base cloud
7 kt
Vent
metar-taf.com/EDWJ

Metar-Taf.com

Décodeur visuel

Nous et des tiers suivons ton comportement Internet sur notre site Web à l'aide de cookies. Si tu continues, nous supposons que tu es d'accord avec notre Politique en matière de cookies.